sensor_id;sensor_type;location;lat;lon;timestamp;temperature;humidity
983;DHT22;480;48.124;11.578;2023-01-19T00:01:36;0.80;99.90
983;DHT22;480;48.124;11.578;2023-01-19T00:04:04;0.80;99.90
983;DHT22;480;48.124;11.578;2023-01-19T00:06:31;0.80;99.90
983;DHT22;480;48.124;11.578;2023-01-19T00:08:58;0.90;99.90
983;DHT22;480;48.124;11.578;2023-01-19T00:11:25;0.80;99.90
983;DHT22;480;48.124;11.578;2023-01-19T00:13:52;0.80;99.90
983;DHT22;480;48.124;11.578;2023-01-19T00:16:21;0.80;99.90
983;DHT22;480;48.124;11.578;2023-01-19T00:18:49;0.90;99.90
983;DHT22;480;48.124;11.578;2023-01-19T00:21:17;0.90;99.90
983;DHT22;480;48.124;11.578;2023-01-19T00:23:44;0.80;99.90
983;DHT22;480;48.124;11.578;2023-01-19T00:26:13;0.70;99.90
983;DHT22;480;48.124;11.578;2023-01-19T00:28:43;0.70;99.90
983;DHT22;480;48.124;11.578;2023-01-19T00:31:11;0.80;99.90
983;DHT22;480;48.124;11.578;2023-01-19T00:33:39;0.80;99.90
983;DHT22;480;48.124;11.578;2023-01-19T00:36:07;0.80;99.90
983;DHT22;480;48.124;11.578;2023-01-19T00:38:35;0.80;99.90
983;DHT22;480;48.124;11.578;2023-01-19T00:41:03;0.70;99.90
983;DHT22;480;48.124;11.578;2023-01-19T00:43:30;0.70;99.90
983;DHT22;480;48.124;11.578;2023-01-19T00:45:56;0.70;99.90
983;DHT22;480;48.124;11.578;2023-01-19T00:48:23;0.80;99.90
983;DHT22;480;48.124;11.578;2023-01-19T00:50:52;0.80;99.90
983;DHT22;480;48.124;11.578;2023-01-19T00:53:19;0.90;99.90
983;DHT22;480;48.124;11.578;2023-01-19T00:55:46;0.90;99.90
983;DHT22;480;48.124;11.578;2023-01-19T00:58:13;0.90;99.90
983;DHT22;480;48.124;11.578;2023-01-19T01:00:40;0.90;99.90
983;DHT22;480;48.124;11.578;2023-01-19T01:03:08;0.80;99.90
983;DHT22;480;48.124;11.578;2023-01-19T01:05:39;0.70;99.90
983;DHT22;480;48.124;11.578;2023-01-19T01:08:08;0.70;99.90
983;DHT22;480;48.124;11.578;2023-01-19T01:10:35;0.70;99.90
983;DHT22;480;48.124;11.578;2023-01-19T01:13:02;0.70;99.90
983;DHT22;480;48.124;11.578;2023-01-19T01:15:30;0.70;99.90
983;DHT22;480;48.124;11.578;2023-01-19T01:17:58;0.90;99.90
983;DHT22;480;48.124;11.578;2023-01-19T01:20:26;0.80;99.90
983;DHT22;480;48.124;11.578;2023-01-19T01:22:58;0.80;99.90
983;DHT22;480;48.124;11.578;2023-01-19T01:25:27;0.90;99.90
983;DHT22;480;48.124;11.578;2023-01-19T01:27:55;1.00;99.90
983;DHT22;480;48.124;11.578;2023-01-19T01:30:23;1.00;99.90
983;DHT22;480;48.124;11.578;2023-01-19T01:32:50;1.00;99.90
983;DHT22;480;48.124;11.578;2023-01-19T01:35:17;1.00;99.90
983;DHT22;480;48.124;11.578;2023-01-19T01:37:45;0.90;99.90
983;DHT22;480;48.124;11.578;2023-01-19T01:40:14;0.90;99.90
983;DHT22;480;48.124;11.578;2023-01-19T01:42:43;0.80;99.90
983;DHT22;480;48.124;11.578;2023-01-19T01:45:26;0.80;99.90
983;DHT22;480;48.124;11.578;2023-01-19T01:47:55;0.70;99.90
983;DHT22;480;48.124;11.578;2023-01-19T01:50:25;0.80;99.90
983;DHT22;480;48.124;11.578;2023-01-19T01:52:57;0.70;99.90
983;DHT22;480;48.124;11.578;2023-01-19T01:55:25;0.80;99.90
983;DHT22;480;48.124;11.578;2023-01-19T01:57:59;0.80;99.90
983;DHT22;480;48.124;11.578;2023-01-19T02:00:27;0.70;99.90
983;DHT22;480;48.124;11.578;2023-01-19T02:03:17;0.80;99.90
983;DHT22;480;48.124;11.578;2023-01-19T02:05:44;0.80;99.90
983;DHT22;480;48.124;11.578;2023-01-19T02:08:14;0.80;99.90
983;DHT22;480;48.124;11.578;2023-01-19T02:11:01;0.80;99.90
983;DHT22;480;48.124;11.578;2023-01-19T02:13:48;0.80;99.90
983;DHT22;480;48.124;11.578;2023-01-19T02:16:16;0.80;99.90
983;DHT22;480;48.124;11.578;2023-01-19T02:18:44;0.60;99.90
983;DHT22;480;48.124;11.578;2023-01-19T02:21:15;0.60;99.90
983;DHT22;480;48.124;11.578;2023-01-19T02:23:48;0.60;99.90
983;DHT22;480;48.124;11.578;2023-01-19T02:26:20;0.50;99.90
983;DHT22;480;48.124;11.578;2023-01-19T02:28:49;0.50;99.90
983;DHT22;480;48.124;11.578;2023-01-19T02:31:17;0.50;99.90
983;DHT22;480;48.124;11.578;2023-01-19T02:33:45;0.40;99.90
983;DHT22;480;48.124;11.578;2023-01-19T02:36:14;0.30;99.90
983;DHT22;480;48.124;11.578;2023-01-19T02:38:43;0.30;99.90
983;DHT22;480;48.124;11.578;2023-01-19T02:41:16;0.10;99.90
983;DHT22;480;48.124;11.578;2023-01-19T02:43:47;0.10;99.90
983;DHT22;480;48.124;11.578;2023-01-19T02:46:17;0.10;99.90
983;DHT22;480;48.124;11.578;2023-01-19T02:48:45;0.20;99.90
983;DHT22;480;48.124;11.578;2023-01-19T02:51:13;0.20;99.90
983;DHT22;480;48.124;11.578;2023-01-19T02:56:46;0.10;99.90
983;DHT22;480;48.124;11.578;2023-01-19T02:59:25;0.10;99.90
983;DHT22;480;48.124;11.578;2023-01-19T03:02:17;0.20;99.90
983;DHT22;480;48.124;11.578;2023-01-19T03:04:57;0.30;99.90
983;DHT22;480;48.124;11.578;2023-01-19T03:07:37;0.30;99.90
983;DHT22;480;48.124;11.578;2023-01-19T03:10:16;0.40;99.90
983;DHT22;480;48.124;11.578;2023-01-19T03:12:51;0.40;99.90
983;DHT22;480;48.124;11.578;2023-01-19T03:15:23;0.30;99.90
983;DHT22;480;48.124;11.578;2023-01-19T03:17:52;0.40;99.90
983;DHT22;480;48.124;11.578;2023-01-19T03:20:22;0.50;99.90
983;DHT22;480;48.124;11.578;2023-01-19T03:22:54;0.50;99.90
983;DHT22;480;48.124;11.578;2023-01-19T03:25:24;0.50;99.90
983;DHT22;480;48.124;11.578;2023-01-19T03:27:53;0.40;99.90
983;DHT22;480;48.124;11.578;2023-01-19T03:30:25;0.50;99.90
983;DHT22;480;48.124;11.578;2023-01-19T03:32:55;0.50;99.90
983;DHT22;480;48.124;11.578;2023-01-19T03:35:30;0.50;99.90
983;DHT22;480;48.124;11.578;2023-01-19T03:37:58;0.50;99.90
983;DHT22;480;48.124;11.578;2023-01-19T03:40:28;0.40;99.90
983;DHT22;480;48.124;11.578;2023-01-19T03:42:58;0.40;99.90
983;DHT22;480;48.124;11.578;2023-01-19T03:45:26;0.30;99.90
983;DHT22;480;48.124;11.578;2023-01-19T03:47:56;0.30;99.90
983;DHT22;480;48.124;11.578;2023-01-19T03:50:27;0.30;99.90
983;DHT22;480;48.124;11.578;2023-01-19T03:53:04;0.30;99.90
983;DHT22;480;48.124;11.578;2023-01-19T03:55:32;0.20;99.90
983;DHT22;480;48.124;11.578;2023-01-19T03:58:00;0.10;99.90
983;DHT22;480;48.124;11.578;2023-01-19T04:00:28;0.10;99.90
983;DHT22;480;48.124;11.578;2023-01-19T04:02:55;0.10;99.90
983;DHT22;480;48.124;11.578;2023-01-19T04:05:23;0.10;99.90
983;DHT22;480;48.124;11.578;2023-01-19T04:07:50;0.10;99.90
983;DHT22;480;48.124;11.578;2023-01-19T04:10:20;0.00;99.90
983;DHT22;480;48.124;11.578;2023-01-19T04:12:47;0.20;99.90
983;DHT22;480;48.124;11.578;2023-01-19T04:15:16;0.20;99.90
983;DHT22;480;48.124;11.578;2023-01-19T04:17:44;0.10;99.90
983;DHT22;480;48.124;11.578;2023-01-19T04:20:12;0.20;99.90
983;DHT22;480;48.124;11.578;2023-01-19T04:22:39;0.20;99.90
983;DHT22;480;48.124;11.578;2023-01-19T04:25:08;0.30;99.90
983;DHT22;480;48.124;11.578;2023-01-19T04:27:36;0.10;99.90
983;DHT22;480;48.124;11.578;2023-01-19T04:30:03;0.10;99.90
983;DHT22;480;48.124;11.578;2023-01-19T04:32:32;0.10;99.90
983;DHT22;480;48.124;11.578;2023-01-19T04:34:59;0.00;99.90
983;DHT22;480;48.124;11.578;2023-01-19T04:37:26;0.10;99.90
983;DHT22;480;48.124;11.578;2023-01-19T04:39:53;0.10;99.90
983;DHT22;480;48.124;11.578;2023-01-19T04:42:20;0.10;99.90
983;DHT22;480;48.124;11.578;2023-01-19T04:44:48;0.00;99.90
983;DHT22;480;48.124;11.578;2023-01-19T04:47:15;0.00;99.90
983;DHT22;480;48.124;11.578;2023-01-19T04:49:44;-0.10;99.90
983;DHT22;480;48.124;11.578;2023-01-19T04:52:11;0.10;99.90
983;DHT22;480;48.124;11.578;2023-01-19T04:54:38;0.00;99.90
983;DHT22;480;48.124;11.578;2023-01-19T04:57:05;0.00;99.90
983;DHT22;480;48.124;11.578;2023-01-19T04:59:32;0.10;99.90
983;DHT22;480;48.124;11.578;2023-01-19T05:01:59;0.10;99.90
983;DHT22;480;48.124;11.578;2023-01-19T05:04:26;0.20;99.90
983;DHT22;480;48.124;11.578;2023-01-19T05:06:55;0.20;99.90
983;DHT22;480;48.124;11.578;2023-01-19T05:09:22;0.20;99.90
983;DHT22;480;48.124;11.578;2023-01-19T05:11:51;0.10;99.90
983;DHT22;480;48.124;11.578;2023-01-19T05:14:19;0.20;99.90
983;DHT22;480;48.124;11.578;2023-01-19T05:16:46;0.30;99.90
983;DHT22;480;48.124;11.578;2023-01-19T05:19:13;0.30;99.90
983;DHT22;480;48.124;11.578;2023-01-19T05:21:41;0.30;99.90
983;DHT22;480;48.124;11.578;2023-01-19T05:24:11;0.30;99.90
983;DHT22;480;48.124;11.578;2023-01-19T05:26:39;0.20;99.90
983;DHT22;480;48.124;11.578;2023-01-19T05:29:06;0.30;99.90
983;DHT22;480;48.124;11.578;2023-01-19T05:31:37;0.30;99.90
983;DHT22;480;48.124;11.578;2023-01-19T05:34:06;0.20;99.90
983;DHT22;480;48.124;11.578;2023-01-19T05:36:36;0.10;99.90
983;DHT22;480;48.124;11.578;2023-01-19T05:39:04;0.20;99.90
983;DHT22;480;48.124;11.578;2023-01-19T05:41:35;0.10;99.90
983;DHT22;480;48.124;11.578;2023-01-19T05:44:03;0.10;99.90
983;DHT22;480;48.124;11.578;2023-01-19T05:46:30;0.10;99.90
983;DHT22;480;48.124;11.578;2023-01-19T05:48:59;0.20;99.90
983;DHT22;480;48.124;11.578;2023-01-19T05:51:30;0.10;99.90
983;DHT22;480;48.124;11.578;2023-01-19T05:54:03;0.00;99.90
983;DHT22;480;48.124;11.578;2023-01-19T05:56:40;0.00;99.90
983;DHT22;480;48.124;11.578;2023-01-19T05:59:11;0.00;99.90
983;DHT22;480;48.124;11.578;2023-01-19T06:01:40;0.10;99.90
983;DHT22;480;48.124;11.578;2023-01-19T06:04:08;0.20;99.90
983;DHT22;480;48.124;11.578;2023-01-19T06:06:41;0.10;99.90
983;DHT22;480;48.124;11.578;2023-01-19T06:09:09;0.10;99.90
983;DHT22;480;48.124;11.578;2023-01-19T06:11:40;0.20;99.90
983;DHT22;480;48.124;11.578;2023-01-19T06:14:09;0.20;99.90
983;DHT22;480;48.124;11.578;2023-01-19T06:16:38;0.20;99.90
983;DHT22;480;48.124;11.578;2023-01-19T06:19:08;0.30;99.90
983;DHT22;480;48.124;11.578;2023-01-19T06:24:27;0.00;99.90
983;DHT22;480;48.124;11.578;2023-01-19T06:27:00;0.00;99.90
983;DHT22;480;48.124;11.578;2023-01-19T06:29:29;0.00;99.90
983;DHT22;480;48.124;11.578;2023-01-19T06:32:09;0.00;99.90
983;DHT22;480;48.124;11.578;2023-01-19T06:34:42;0.00;99.90
983;DHT22;480;48.124;11.578;2023-01-19T06:37:22;-0.10;99.90
983;DHT22;480;48.124;11.578;2023-01-19T06:39:53;-0.20;99.90
983;DHT22;480;48.124;11.578;2023-01-19T06:48:08;-0.20;99.90
983;DHT22;480;48.124;11.578;2023-01-19T06:50:50;-0.10;99.90
983;DHT22;480;48.124;11.578;2023-01-19T06:53:33;-0.10;99.90
983;DHT22;480;48.124;11.578;2023-01-19T06:56:03;-0.10;99.90
983;DHT22;480;48.124;11.578;2023-01-19T06:58:46;0.00;99.90
983;DHT22;480;48.124;11.578;2023-01-19T07:01:31;-0.10;99.90
983;DHT22;480;48.124;11.578;2023-01-19T07:04:08;0.00;99.90
983;DHT22;480;48.124;11.578;2023-01-19T07:11:48;0.00;99.90
983;DHT22;480;48.124;11.578;2023-01-19T07:14:32;0.00;99.90
983;DHT22;480;48.124;11.578;2023-01-19T07:17:14;-0.10;99.90
983;DHT22;480;48.124;11.578;2023-01-19T07:19:52;0.00;99.90
983;DHT22;480;48.124;11.578;2023-01-19T07:22:30;-0.10;99.90
983;DHT22;480;48.124;11.578;2023-01-19T07:25:13;-0.10;99.90
983;DHT22;480;48.124;11.578;2023-01-19T07:27:59;0.10;99.90
983;DHT22;480;48.124;11.578;2023-01-19T07:33:01;-0.10;99.90
983;DHT22;480;48.124;11.578;2023-01-19T07:38:07;-0.20;99.90
983;DHT22;480;48.124;11.578;2023-01-19T07:40:35;-0.10;99.90
983;DHT22;480;48.124;11.578;2023-01-19T07:43:03;-0.10;99.90
983;DHT22;480;48.124;11.578;2023-01-19T07:45:30;-0.20;99.90
983;DHT22;480;48.124;11.578;2023-01-19T07:47:57;-0.20;99.90
983;DHT22;480;48.124;11.578;2023-01-19T07:50:26;-0.20;99.90
983;DHT22;480;48.124;11.578;2023-01-19T07:52:54;-0.20;99.90
983;DHT22;480;48.124;11.578;2023-01-19T07:55:22;-0.20;99.90
983;DHT22;480;48.124;11.578;2023-01-19T07:57:50;-0.20;99.90
983;DHT22;480;48.124;11.578;2023-01-19T08:00:18;-0.20;99.90
983;DHT22;480;48.124;11.578;2023-01-19T08:02:49;0.00;99.90
983;DHT22;480;48.124;11.578;2023-01-19T08:05:17;0.00;99.90
983;DHT22;480;48.124;11.578;2023-01-19T08:07:45;0.00;99.90
983;DHT22;480;48.124;11.578;2023-01-19T08:10:14;0.00;99.90
983;DHT22;480;48.124;11.578;2023-01-19T08:12:42;0.00;99.90
983;DHT22;480;48.124;11.578;2023-01-19T08:15:15;-0.10;99.90
983;DHT22;480;48.124;11.578;2023-01-19T08:17:42;0.00;99.90
983;DHT22;480;48.124;11.578;2023-01-19T08:20:12;0.10;99.90
983;DHT22;480;48.124;11.578;2023-01-19T08:22:39;0.10;99.90
983;DHT22;480;48.124;11.578;2023-01-19T08:25:08;0.10;99.90
983;DHT22;480;48.124;11.578;2023-01-19T08:27:36;-0.10;99.90
983;DHT22;480;48.124;11.578;2023-01-19T08:30:03;-0.10;99.90
983;DHT22;480;48.124;11.578;2023-01-19T08:32:32;0.00;99.90
983;DHT22;480;48.124;11.578;2023-01-19T08:35:00;0.10;99.90
983;DHT22;480;48.124;11.578;2023-01-19T08:37:27;0.10;99.90
983;DHT22;480;48.124;11.578;2023-01-19T08:39:55;0.10;99.90
983;DHT22;480;48.124;11.578;2023-01-19T08:42:25;0.10;99.90
983;DHT22;480;48.124;11.578;2023-01-19T08:44:55;0.20;99.90
983;DHT22;480;48.124;11.578;2023-01-19T08:47:22;0.10;99.90
983;DHT22;480;48.124;11.578;2023-01-19T08:49:50;0.30;99.90
983;DHT22;480;48.124;11.578;2023-01-19T08:52:17;0.30;99.90
983;DHT22;480;48.124;11.578;2023-01-19T08:54:45;0.30;99.90
983;DHT22;480;48.124;11.578;2023-01-19T08:57:13;0.50;99.90
983;DHT22;480;48.124;11.578;2023-01-19T08:59:42;0.60;99.90
983;DHT22;480;48.124;11.578;2023-01-19T09:02:12;0.60;99.90
983;DHT22;480;48.124;11.578;2023-01-19T09:04:39;0.70;99.90
983;DHT22;480;48.124;11.578;2023-01-19T09:07:06;0.70;99.90
983;DHT22;480;48.124;11.578;2023-01-19T09:09:33;0.60;99.90
983;DHT22;480;48.124;11.578;2023-01-19T09:12:02;0.60;99.90
983;DHT22;480;48.124;11.578;2023-01-19T09:14:30;0.70;99.90
983;DHT22;480;48.124;11.578;2023-01-19T09:17:00;0.70;99.90
983;DHT22;480;48.124;11.578;2023-01-19T09:19:29;0.60;99.90
983;DHT22;480;48.124;11.578;2023-01-19T09:21:57;0.50;99.90
983;DHT22;480;48.124;11.578;2023-01-19T09:24:25;0.50;99.90
983;DHT22;480;48.124;11.578;2023-01-19T09:26:53;0.40;99.90
983;DHT22;480;48.124;11.578;2023-01-19T09:29:22;0.50;99.90
983;DHT22;480;48.124;11.578;2023-01-19T09:31:49;0.50;99.90
983;DHT22;480;48.124;11.578;2023-01-19T09:34:31;0.60;99.90
983;DHT22;480;48.124;11.578;2023-01-19T09:44:43;0.50;99.90
983;DHT22;480;48.124;11.578;2023-01-19T09:47:30;0.60;99.90
983;DHT22;480;48.124;11.578;2023-01-19T09:52:35;0.70;99.90
983;DHT22;480;48.124;11.578;2023-01-19T09:55:19;0.80;99.90
983;DHT22;480;48.124;11.578;2023-01-19T10:00:42;0.90;99.90
983;DHT22;480;48.124;11.578;2023-01-19T10:03:14;1.10;99.90
983;DHT22;480;48.124;11.578;2023-01-19T10:05:48;0.90;99.90
983;DHT22;480;48.124;11.578;2023-01-19T10:08:32;0.90;99.90
983;DHT22;480;48.124;11.578;2023-01-19T10:11:02;0.90;99.90
983;DHT22;480;48.124;11.578;2023-01-19T10:13:35;1.00;99.90
983;DHT22;480;48.124;11.578;2023-01-19T10:16:16;0.90;99.90
983;DHT22;480;48.124;11.578;2023-01-19T10:18:53;1.00;99.90
983;DHT22;480;48.124;11.578;2023-01-19T10:21:26;1.10;99.90
983;DHT22;480;48.124;11.578;2023-01-19T10:24:21;1.10;99.90
983;DHT22;480;48.124;11.578;2023-01-19T10:26:53;1.20;99.90
983;DHT22;480;48.124;11.578;2023-01-19T10:29:26;1.40;99.90
983;DHT22;480;48.124;11.578;2023-01-19T10:32:11;1.50;99.90
983;DHT22;480;48.124;11.578;2023-01-19T10:34:39;1.70;99.90
983;DHT22;480;48.124;11.578;2023-01-19T10:37:27;1.80;99.90
983;DHT22;480;48.124;11.578;2023-01-19T10:40:06;1.90;99.90
983;DHT22;480;48.124;11.578;2023-01-19T10:42:44;2.00;99.90
983;DHT22;480;48.124;11.578;2023-01-19T10:45:14;2.00;99.90
983;DHT22;480;48.124;11.578;2023-01-19T10:47:43;2.00;99.90
983;DHT22;480;48.124;11.578;2023-01-19T10:50:22;1.70;99.90
983;DHT22;480;48.124;11.578;2023-01-19T10:52:51;1.80;99.90
983;DHT22;480;48.124;11.578;2023-01-19T10:55:26;1.90;99.90
983;DHT22;480;48.124;11.578;2023-01-19T10:57:58;1.90;99.90
983;DHT22;480;48.124;11.578;2023-01-19T11:00:38;1.70;99.90
983;DHT22;480;48.124;11.578;2023-01-19T11:03:21;1.60;99.90
983;DHT22;480;48.124;11.578;2023-01-19T11:05:49;1.60;99.90
983;DHT22;480;48.124;11.578;2023-01-19T11:08:22;1.70;99.90
983;DHT22;480;48.124;11.578;2023-01-19T11:10:58;1.60;99.90
983;DHT22;480;48.124;11.578;2023-01-19T11:13:41;1.50;99.90
983;DHT22;480;48.124;11.578;2023-01-19T11:16:26;1.60;99.90
983;DHT22;480;48.124;11.578;2023-01-19T11:18:55;1.60;99.90
983;DHT22;480;48.124;11.578;2023-01-19T11:21:32;1.80;99.90
983;DHT22;480;48.124;11.578;2023-01-19T11:24:03;1.90;99.90
983;DHT22;480;48.124;11.578;2023-01-19T11:26:39;1.90;99.90
983;DHT22;480;48.124;11.578;2023-01-19T11:29:15;2.10;99.90
983;DHT22;480;48.124;11.578;2023-01-19T11:31:43;2.10;99.90
983;DHT22;480;48.124;11.578;2023-01-19T11:34:31;2.20;99.90
983;DHT22;480;48.124;11.578;2023-01-19T11:37:01;2.30;99.90
983;DHT22;480;48.124;11.578;2023-01-19T11:39:43;2.20;99.90
983;DHT22;480;48.124;11.578;2023-01-19T11:42:24;2.20;99.90
983;DHT22;480;48.124;11.578;2023-01-19T11:44:59;2.20;99.90
983;DHT22;480;48.124;11.578;2023-01-19T11:47:39;2.20;99.90
983;DHT22;480;48.124;11.578;2023-01-19T11:50:21;2.20;99.90
983;DHT22;480;48.124;11.578;2023-01-19T11:52:54;2.10;99.90
983;DHT22;480;48.124;11.578;2023-01-19T11:55:40;2.10;99.90
983;DHT22;480;48.124;11.578;2023-01-19T11:58:15;2.10;99.90
983;DHT22;480;48.124;11.578;2023-01-19T12:00:45;2.10;99.90
983;DHT22;480;48.124;11.578;2023-01-19T12:03:18;2.10;99.90
983;DHT22;480;48.124;11.578;2023-01-19T12:05:50;2.00;99.90
983;DHT22;480;48.124;11.578;2023-01-19T12:08:20;2.20;99.90
983;DHT22;480;48.124;11.578;2023-01-19T12:10:51;2.30;99.90
983;DHT22;480;48.124;11.578;2023-01-19T12:13:24;2.50;99.90
983;DHT22;480;48.124;11.578;2023-01-19T12:15:54;2.40;99.90
983;DHT22;480;48.124;11.578;2023-01-19T12:18:32;2.40;99.90
983;DHT22;480;48.124;11.578;2023-01-19T12:21:02;2.30;99.90
983;DHT22;480;48.124;11.578;2023-01-19T12:23:53;2.30;99.90
983;DHT22;480;48.124;11.578;2023-01-19T12:26:27;2.30;99.90
983;DHT22;480;48.124;11.578;2023-01-19T12:29:06;2.30;99.90
983;DHT22;480;48.124;11.578;2023-01-19T12:31:40;2.40;99.90
983;DHT22;480;48.124;11.578;2023-01-19T12:34:28;2.40;99.90
983;DHT22;480;48.124;11.578;2023-01-19T12:37:06;2.60;99.90
983;DHT22;480;48.124;11.578;2023-01-19T12:39:55;2.50;99.90
983;DHT22;480;48.124;11.578;2023-01-19T12:42:28;2.30;99.90
983;DHT22;480;48.124;11.578;2023-01-19T12:45:06;2.20;99.90
983;DHT22;480;48.124;11.578;2023-01-19T12:47:36;2.20;99.90
983;DHT22;480;48.124;11.578;2023-01-19T12:50:10;2.20;99.90
983;DHT22;480;48.124;11.578;2023-01-19T12:52:41;2.30;99.90
983;DHT22;480;48.124;11.578;2023-01-19T12:55:19;2.30;99.90
983;DHT22;480;48.124;11.578;2023-01-19T12:57:54;2.30;99.90
983;DHT22;480;48.124;11.578;2023-01-19T13:00:35;2.30;99.90
983;DHT22;480;48.124;11.578;2023-01-19T13:05:59;2.30;99.90
983;DHT22;480;48.124;11.578;2023-01-19T13:08:28;2.30;99.90
983;DHT22;480;48.124;11.578;2023-01-19T13:11:17;2.30;99.90
983;DHT22;480;48.124;11.578;2023-01-19T13:17:17;2.40;99.90
983;DHT22;480;48.124;11.578;2023-01-19T13:20:04;2.30;99.90
983;DHT22;480;48.124;11.578;2023-01-19T13:25:45;2.40;99.90
983;DHT22;480;48.124;11.578;2023-01-19T13:28:16;2.40;99.90
983;DHT22;480;48.124;11.578;2023-01-19T13:30:53;2.60;99.90
983;DHT22;480;48.124;11.578;2023-01-19T13:33:24;2.60;99.90
983;DHT22;480;48.124;11.578;2023-01-19T13:35:54;2.60;99.90
983;DHT22;480;48.124;11.578;2023-01-19T13:38:25;2.60;99.90
983;DHT22;480;48.124;11.578;2023-01-19T13:40:54;2.60;99.90
983;DHT22;480;48.124;11.578;2023-01-19T13:43:26;2.50;99.90
983;DHT22;480;48.124;11.578;2023-01-19T13:45:57;2.50;99.90
983;DHT22;480;48.124;11.578;2023-01-19T13:48:35;2.40;99.90
983;DHT22;480;48.124;11.578;2023-01-19T13:51:05;2.30;99.90
983;DHT22;480;48.124;11.578;2023-01-19T13:53:33;2.50;99.90
983;DHT22;480;48.124;11.578;2023-01-19T13:56:22;2.60;99.90
983;DHT22;480;48.124;11.578;2023-01-19T13:58:58;2.50;99.90
983;DHT22;480;48.124;11.578;2023-01-19T14:01:27;2.50;99.90
983;DHT22;480;48.124;11.578;2023-01-19T14:04:26;2.40;99.90
983;DHT22;480;48.124;11.578;2023-01-19T14:06:58;2.40;99.90
983;DHT22;480;48.124;11.578;2023-01-19T14:09:28;2.20;99.90
983;DHT22;480;48.124;11.578;2023-01-19T14:12:20;2.30;99.90
983;DHT22;480;48.124;11.578;2023-01-19T14:14:48;2.20;99.90
983;DHT22;480;48.124;11.578;2023-01-19T14:17:21;2.30;99.90
983;DHT22;480;48.124;11.578;2023-01-19T14:19:59;2.30;99.90
983;DHT22;480;48.124;11.578;2023-01-19T14:22:37;2.30;99.90
983;DHT22;480;48.124;11.578;2023-01-19T14:25:30;2.50;99.90
983;DHT22;480;48.124;11.578;2023-01-19T14:28:31;2.40;99.90
983;DHT22;480;48.124;11.578;2023-01-19T14:31:20;2.40;99.90
983;DHT22;480;48.124;11.578;2023-01-19T14:34:01;2.20;99.90
983;DHT22;480;48.124;11.578;2023-01-19T14:36:51;2.10;99.90
983;DHT22;480;48.124;11.578;2023-01-19T14:39:23;2.00;99.90
983;DHT22;480;48.124;11.578;2023-01-19T14:41:54;2.00;99.90
983;DHT22;480;48.124;11.578;2023-01-19T14:49:23;1.80;99.90
983;DHT22;480;48.124;11.578;2023-01-19T14:51:55;1.80;99.90
983;DHT22;480;48.124;11.578;2023-01-19T14:54:44;1.80;99.90
983;DHT22;480;48.124;11.578;2023-01-19T14:57:12;1.80;99.90
983;DHT22;480;48.124;11.578;2023-01-19T14:59:41;1.70;99.90
983;DHT22;480;48.124;11.578;2023-01-19T15:02:39;1.70;99.90
983;DHT22;480;48.124;11.578;2023-01-19T15:05:13;1.70;99.90
983;DHT22;480;48.124;11.578;2023-01-19T15:08:13;1.70;99.90
983;DHT22;480;48.124;11.578;2023-01-19T15:10:41;1.70;99.90
983;DHT22;480;48.124;11.578;2023-01-19T15:13:16;1.80;99.90
983;DHT22;480;48.124;11.578;2023-01-19T15:15:45;1.80;99.90
983;DHT22;480;48.124;11.578;2023-01-19T15:18:16;1.90;99.90
983;DHT22;480;48.124;11.578;2023-01-19T15:20:46;1.90;99.90
983;DHT22;480;48.124;11.578;2023-01-19T15:23:31;1.90;99.90
983;DHT22;480;48.124;11.578;2023-01-19T15:26:02;1.90;99.90
983;DHT22;480;48.124;11.578;2023-01-19T15:28:31;1.90;99.90
983;DHT22;480;48.124;11.578;2023-01-19T15:31:12;2.10;99.90
983;DHT22;480;48.124;11.578;2023-01-19T15:33:46;2.10;99.90
983;DHT22;480;48.124;11.578;2023-01-19T15:36:16;2.10;99.90
983;DHT22;480;48.124;11.578;2023-01-19T15:38:47;2.00;99.90
983;DHT22;480;48.124;11.578;2023-01-19T15:41:23;2.00;99.90
983;DHT22;480;48.124;11.578;2023-01-19T15:43:54;1.90;99.90
983;DHT22;480;48.124;11.578;2023-01-19T15:46:35;1.80;99.90
983;DHT22;480;48.124;11.578;2023-01-19T15:49:17;1.70;99.90
983;DHT22;480;48.124;11.578;2023-01-19T15:51:46;1.70;99.90
983;DHT22;480;48.124;11.578;2023-01-19T15:54:21;1.90;99.90
983;DHT22;480;48.124;11.578;2023-01-19T15:56:54;1.90;99.90
983;DHT22;480;48.124;11.578;2023-01-19T15:59:38;1.80;99.90
983;DHT22;480;48.124;11.578;2023-01-19T16:02:09;1.70;99.90
983;DHT22;480;48.124;11.578;2023-01-19T16:04:39;1.60;99.90
983;DHT22;480;48.124;11.578;2023-01-19T16:07:09;1.60;99.90
983;DHT22;480;48.124;11.578;2023-01-19T16:09:39;1.60;99.90
983;DHT22;480;48.124;11.578;2023-01-19T16:12:09;1.70;99.90
983;DHT22;480;48.124;11.578;2023-01-19T16:14:40;1.60;99.90
983;DHT22;480;48.124;11.578;2023-01-19T16:17:08;1.60;99.90
983;DHT22;480;48.124;11.578;2023-01-19T16:19:36;1.60;99.90
983;DHT22;480;48.124;11.578;2023-01-19T16:22:04;1.60;99.90
983;DHT22;480;48.124;11.578;2023-01-19T16:24:41;1.60;99.90
983;DHT22;480;48.124;11.578;2023-01-19T16:27:14;1.50;99.90
983;DHT22;480;48.124;11.578;2023-01-19T16:29:41;1.50;99.90
983;DHT22;480;48.124;11.578;2023-01-19T16:32:17;1.50;99.90
983;DHT22;480;48.124;11.578;2023-01-19T16:34:47;1.50;99.90
983;DHT22;480;48.124;11.578;2023-01-19T16:37:17;1.50;99.90
983;DHT22;480;48.124;11.578;2023-01-19T16:39:50;1.40;99.90
983;DHT22;480;48.124;11.578;2023-01-19T16:42:19;1.40;99.90
983;DHT22;480;48.124;11.578;2023-01-19T16:44:47;1.30;99.90
983;DHT22;480;48.124;11.578;2023-01-19T16:47:14;1.20;99.90
983;DHT22;480;48.124;11.578;2023-01-19T16:49:41;1.20;99.90
983;DHT22;480;48.124;11.578;2023-01-19T16:52:08;1.30;99.90
983;DHT22;480;48.124;11.578;2023-01-19T16:54:35;1.30;99.90
983;DHT22;480;48.124;11.578;2023-01-19T16:57:04;1.40;99.90
983;DHT22;480;48.124;11.578;2023-01-19T16:59:31;1.40;99.90
983;DHT22;480;48.124;11.578;2023-01-19T17:01:58;1.50;99.90
983;DHT22;480;48.124;11.578;2023-01-19T17:04:26;1.40;99.90
983;DHT22;480;48.124;11.578;2023-01-19T17:06:54;1.60;99.90
983;DHT22;480;48.124;11.578;2023-01-19T17:09:24;1.60;99.90
983;DHT22;480;48.124;11.578;2023-01-19T17:11:56;1.50;99.90
983;DHT22;480;48.124;11.578;2023-01-19T17:14:27;1.40;99.90
983;DHT22;480;48.124;11.578;2023-01-19T17:16:54;1.60;99.90
983;DHT22;480;48.124;11.578;2023-01-19T17:19:29;1.60;99.90
983;DHT22;480;48.124;11.578;2023-01-19T17:21:56;1.50;99.90
983;DHT22;480;48.124;11.578;2023-01-19T17:24:24;1.40;99.90
983;DHT22;480;48.124;11.578;2023-01-19T17:26:54;1.40;99.90
983;DHT22;480;48.124;11.578;2023-01-19T17:29:22;1.30;99.90
983;DHT22;480;48.124;11.578;2023-01-19T17:31:52;1.20;99.90
983;DHT22;480;48.124;11.578;2023-01-19T17:34:19;1.20;99.90
983;DHT22;480;48.124;11.578;2023-01-19T17:36:46;1.40;99.90
983;DHT22;480;48.124;11.578;2023-01-19T17:39:16;1.40;99.90
983;DHT22;480;48.124;11.578;2023-01-19T17:41:44;1.30;99.90
983;DHT22;480;48.124;11.578;2023-01-19T17:44:12;1.30;99.90
983;DHT22;480;48.124;11.578;2023-01-19T17:46:41;1.20;99.90
983;DHT22;480;48.124;11.578;2023-01-19T17:49:14;1.30;99.90
983;DHT22;480;48.124;11.578;2023-01-19T17:51:44;1.50;99.90
983;DHT22;480;48.124;11.578;2023-01-19T17:54:23;1.60;99.90
983;DHT22;480;48.124;11.578;2023-01-19T17:57:02;1.70;99.90